sensor_id;sensor_type;location;lat;lon;timestamp;pressure;altitude;pressure_sealevel;temperature;humidity
78625;BME280;67944;0.000;0.000;2024-02-21T00:00:42;101681.53;;;21.96;34.94
78625;BME280;67944;0.000;0.000;2024-02-21T00:03:09;101681.53;;;21.96;35.04
78625;BME280;67944;0.000;0.000;2024-02-21T00:05:35;101680.69;;;21.96;35.04
78625;BME280;67944;0.000;0.000;2024-02-21T00:08:02;101670.09;;;21.96;35.15
78625;BME280;67944;0.000;0.000;2024-02-21T00:10:28;101663.13;;;21.95;34.89
78625;BME280;67944;0.000;0.000;2024-02-21T00:12:54;101661.31;;;21.95;34.90
78625;BME280;67944;0.000;0.000;2024-02-21T00:15:20;101661.47;;;21.94;34.90
78625;BME280;67944;0.000;0.000;2024-02-21T00:17:46;101657.00;;;21.94;35.12
78625;BME280;67944;0.000;0.000;2024-02-21T00:20:12;101658.81;;;21.94;34.95
78625;BME280;67944;0.000;0.000;2024-02-21T00:22:37;101657.16;;;21.93;35.09
78625;BME280;67944;0.000;0.000;2024-02-21T00:25:04;101650.03;;;21.93;35.08
78625;BME280;67944;0.000;0.000;2024-02-21T00:27:30;101658.81;;;21.94;34.95
78625;BME280;67944;0.000;0.000;2024-02-21T00:29:56;101658.13;;;21.92;35.07
78625;BME280;67944;0.000;0.000;2024-02-21T00:32:21;101653.66;;;21.92;35.04
78625;BME280;67944;0.000;0.000;2024-02-21T00:34:47;101645.69;;;21.92;34.96
78625;BME280;67944;0.000;0.000;2024-02-21T00:37:12;101627.28;;;21.90;35.21
78625;BME280;67944;0.000;0.000;2024-02-21T00:39:38;101622.81;;;21.91;35.33
78625;BME280;67944;0.000;0.000;2024-02-21T00:42:04;101625.63;;;21.89;35.01
78625;BME280;67944;0.000;0.000;2024-02-21T00:44:29;101626.47;;;21.90;34.98
78625;BME280;67944;0.000;0.000;2024-02-21T00:46:55;101623.81;;;21.90;35.27
78625;BME280;67944;0.000;0.000;2024-02-21T00:49:21;101615.84;;;21.90;35.06
78625;BME280;67944;0.000;0.000;2024-02-21T00:51:47;101605.41;;;21.88;35.22
78625;BME280;67944;0.000;0.000;2024-02-21T00:54:12;101600.09;;;21.88;34.88
78625;BME280;67944;0.000;0.000;2024-02-21T00:56:38;101589.50;;;21.88;34.99
78625;BME280;67944;0.000;0.000;2024-02-21T00:59:03;101584.34;;;21.87;35.29
78625;BME280;67944;0.000;0.000;2024-02-21T01:01:29;101576.38;;;21.87;35.25
78625;BME280;67944;0.000;0.000;2024-02-21T01:03:54;101572.94;;;21.86;35.01
78625;BME280;67944;0.000;0.000;2024-02-21T01:06:20;101572.94;;;21.86;35.03
78625;BME280;67944;0.000;0.000;2024-02-21T01:08:46;101571.09;;;21.87;35.20
78625;BME280;67944;0.000;0.000;2024-02-21T01:11:13;101564.16;;;21.86;35.04
78625;BME280;67944;0.000;0.000;2024-02-21T01:13:39;101568.44;;;21.87;35.10
78625;BME280;67944;0.000;0.000;2024-02-21T01:16:05;101563.97;;;21.87;35.13
78625;BME280;67944;0.000;0.000;2024-02-21T01:18:33;101557.03;;;21.86;35.03
78625;BME280;67944;0.000;0.000;2024-02-21T01:20:58;101557.03;;;21.86;35.17
78625;BME280;67944;0.000;0.000;2024-02-21T01:23:24;101562.34;;;21.86;35.14
78625;BME280;67944;0.000;0.000;2024-02-21T01:25:50;101558.84;;;21.86;35.24
78625;BME280;67944;0.000;0.000;2024-02-21T01:28:15;101546.56;;;21.85;35.04
78625;BME280;67944;0.000;0.000;2024-02-21T01:30:41;101553.53;;;21.86;35.23
78625;BME280;67944;0.000;0.000;2024-02-21T01:33:06;101556.34;;;21.84;35.12
78625;BME280;67944;0.000;0.000;2024-02-21T01:35:32;101553.53;;;21.86;35.29
78625;BME280;67944;0.000;0.000;2024-02-21T01:37:57;101554.53;;;21.85;35.07
78625;BME280;67944;0.000;0.000;2024-02-21T01:40:23;101562.50;;;21.85;35.21
78625;BME280;67944;0.000;0.000;2024-02-21T01:42:48;101561.66;;;21.84;35.13
78625;BME280;67944;0.000;0.000;2024-02-21T01:45:14;101558.19;;;21.84;35.00
78625;BME280;67944;0.000;0.000;2024-02-21T01:47:40;101552.88;;;21.84;35.23
78625;BME280;67944;0.000;0.000;2024-02-21T01:50:06;101559.00;;;21.84;35.30
78625;BME280;67944;0.000;0.000;2024-02-21T01:52:34;101551.88;;;21.85;35.25
78625;BME280;67944;0.000;0.000;2024-02-21T01:55:01;101544.91;;;21.84;35.23
78625;BME280;67944;0.000;0.000;2024-02-21T01:57:27;101551.06;;;21.84;35.32
78625;BME280;67944;0.000;0.000;2024-02-21T01:59:54;101551.88;;;21.85;35.14
78625;BME280;67944;0.000;0.000;2024-02-21T02:02:21;101552.88;;;21.84;35.38
78625;BME280;67944;0.000;0.000;2024-02-21T02:04:49;101561.66;;;21.84;35.12
78625;BME280;67944;0.000;0.000;2024-02-21T02:07:14;101554.69;;;21.83;35.15
78625;BME280;67944;0.000;0.000;2024-02-21T02:09:40;101548.56;;;21.83;35.21
78625;BME280;67944;0.000;0.000;2024-02-21T02:12:05;101538.94;;;21.82;35.32
78625;BME280;67944;0.000;0.000;2024-02-21T02:14:31;101532.81;;;21.81;35.31
78625;BME280;67944;0.000;0.000;2024-02-21T02:16:56;101522.19;;;21.81;35.30
78625;BME280;67944;0.000;0.000;2024-02-21T02:19:22;101518.72;;;21.81;35.33
78625;BME280;67944;0.000;0.000;2024-02-21T02:21:51;101516.06;;;21.81;35.06
78625;BME280;67944;0.000;0.000;2024-02-21T02:24:24;101511.75;;;21.80;35.32
78625;BME280;67944;0.000;0.000;2024-02-21T02:26:50;101507.28;;;21.80;35.07
78625;BME280;67944;0.000;0.000;2024-02-21T02:29:15;101494.03;;;21.80;35.16
78625;BME280;67944;0.000;0.000;2024-02-21T02:31:42;101495.00;;;21.79;35.50
78625;BME280;67944;0.000;0.000;2024-02-21T02:34:07;101493.19;;;21.80;35.29
78625;BME280;67944;0.000;0.000;2024-02-21T02:36:33;101485.25;;;21.80;35.08
78625;BME280;67944;0.000;0.000;2024-02-21T02:38:59;101479.94;;;21.80;35.29
78625;BME280;67944;0.000;0.000;2024-02-21T02:41:24;101475.63;;;21.79;35.38
78625;BME280;67944;0.000;0.000;2024-02-21T02:43:50;101480.09;;;21.78;35.24
78625;BME280;67944;0.000;0.000;2024-02-21T02:46:15;101485.41;;;21.78;35.14
78625;BME280;67944;0.000;0.000;2024-02-21T02:48:41;101478.44;;;21.77;34.96
78625;BME280;67944;0.000;0.000;2024-02-21T02:51:06;101476.63;;;21.78;35.25
78625;BME280;67944;0.000;0.000;2024-02-21T02:53:32;101479.25;;;21.78;35.27
78625;BME280;67944;0.000;0.000;2024-02-21T02:55:57;101469.66;;;21.77;35.39
78625;BME280;67944;0.000;0.000;2024-02-21T02:58:23;101462.69;;;21.76;35.44
78625;BME280;67944;0.000;0.000;2024-02-21T03:00:48;101474.13;;;21.76;35.52
78625;BME280;67944;0.000;0.000;2024-02-21T03:03:14;101482.06;;;21.76;35.05
78625;BME280;67944;0.000;0.000;2024-02-21T03:05:39;101481.25;;;21.76;35.20
78625;BME280;67944;0.000;0.000;2024-02-21T03:08:05;101477.59;;;21.77;35.23
78625;BME280;67944;0.000;0.000;2024-02-21T03:10:33;101464.50;;;21.75;35.35
78625;BME280;67944;0.000;0.000;2024-02-21T03:12:58;101449.59;;;21.74;35.28
78625;BME280;67944;0.000;0.000;2024-02-21T03:15:24;101463.84;;;21.73;35.18
78625;BME280;67944;0.000;0.000;2024-02-21T03:17:49;101440.97;;;21.72;35.08
78625;BME280;67944;0.000;0.000;2024-02-21T03:20:15;101424.22;;;21.72;35.33
78625;BME280;67944;0.000;0.000;2024-02-21T03:22:41;101429.53;;;21.72;35.15
78625;BME280;67944;0.000;0.000;2024-02-21T03:25:07;101428.53;;;21.73;35.37
78625;BME280;67944;0.000;0.000;2024-02-21T03:27:33;101428.38;;;21.74;35.25
78625;BME280;67944;0.000;0.000;2024-02-21T03:29:58;101423.06;;;21.74;35.14
78625;BME280;67944;0.000;0.000;2024-02-21T03:32:24;101429.22;;;21.75;35.07
78625;BME280;67944;0.000;0.000;2024-02-21T03:34:49;101430.03;;;21.75;35.19
78625;BME280;67944;0.000;0.000;2024-02-21T03:37:15;101434.34;;;21.76;35.12
78625;BME280;67944;0.000;0.000;2024-02-21T03:39:40;101428.22;;;21.76;35.15
78625;BME280;67944;0.000;0.000;2024-02-21T03:42:06;101421.91;;;21.77;35.17
78625;BME280;67944;0.000;0.000;2024-02-21T03:44:31;101420.94;;;21.78;34.86
78625;BME280;67944;0.000;0.000;2024-02-21T03:46:58;101420.94;;;21.78;35.25
78625;BME280;67944;0.000;0.000;2024-02-21T03:49:23;101425.25;;;21.79;35.08
78625;BME280;67944;0.000;0.000;2024-02-21T03:51:49;101435.69;;;21.80;35.28
78625;BME280;67944;0.000;0.000;2024-02-21T03:54:14;101430.22;;;21.82;34.80
78625;BME280;67944;0.000;0.000;2024-02-21T03:56:40;101433.69;;;21.82;35.15
78625;BME280;67944;0.000;0.000;2024-02-21T03:59:07;101438.84;;;21.84;34.98
78625;BME280;67944;0.000;0.000;2024-02-21T04:01:34;101438.84;;;21.84;35.14
78625;BME280;67944;0.000;0.000;2024-02-21T04:03:59;101435.84;;;21.87;35.21
78625;BME280;67944;0.000;0.000;2024-02-21T04:06:25;101427.88;;;21.87;34.87
78625;BME280;67944;0.000;0.000;2024-02-21T04:08:50;101435.03;;;21.78;35.20
78625;BME280;67944;0.000;0.000;2024-02-21T04:11:16;101430.38;;;21.64;34.97
78625;BME280;67944;0.000;0.000;2024-02-21T04:13:42;101437.63;;;21.54;34.75
78625;BME280;67944;0.000;0.000;2024-02-21T04:16:08;101437.28;;;21.49;34.88
78625;BME280;67944;0.000;0.000;2024-02-21T04:18:33;101436.13;;;21.43;34.49
78625;BME280;67944;0.000;0.000;2024-02-21T04:20:59;101432.47;;;21.36;34.66
78625;BME280;67944;0.000;0.000;2024-02-21T04:23:24;101430.59;;;21.29;34.40
78625;BME280;67944;0.000;0.000;2024-02-21T04:25:50;101417.47;;;21.19;34.43
78625;BME280;67944;0.000;0.000;2024-02-21T04:28:15;101404.19;;;21.11;34.33
78625;BME280;67944;0.000;0.000;2024-02-21T04:30:41;101391.44;;;21.06;34.34
78625;BME280;67944;0.000;0.000;2024-02-21T04:33:06;101397.88;;;21.04;34.65
78625;BME280;67944;0.000;0.000;2024-02-21T04:35:32;101402.34;;;21.03;35.02
78625;BME280;67944;0.000;0.000;2024-02-21T04:37:57;101399.69;;;21.03;34.72
78625;BME280;67944;0.000;0.000;2024-02-21T04:40:23;101387.28;;;21.04;34.64
78625;BME280;67944;0.000;0.000;2024-02-21T04:42:48;101392.72;;;21.02;34.78
78625;BME280;67944;0.000;0.000;2024-02-21T04:45:14;101391.91;;;21.02;34.65
78625;BME280;67944;0.000;0.000;2024-02-21T04:47:39;101377.00;;;21.01;34.49
78625;BME280;67944;0.000;0.000;2024-02-21T04:50:05;101375.38;;;21.00;34.34
78625;BME280;67944;0.000;0.000;2024-02-21T04:52:31;101378.81;;;21.00;34.73
78625;BME280;67944;0.000;0.000;2024-02-21T04:54:56;101371.69;;;21.01;34.33
78625;BME280;67944;0.000;0.000;2024-02-21T04:57:22;101366.41;;;21.01;34.58
78625;BME280;67944;0.000;0.000;2024-02-21T04:59:47;101362.78;;;21.02;34.86
78625;BME280;67944;0.000;0.000;2024-02-21T05:02:13;101359.81;;;21.05;34.78
78625;BME280;67944;0.000;0.000;2024-02-21T05:04:39;101353.88;;;21.11;34.61
78625;BME280;67944;0.000;0.000;2024-02-21T05:07:05;101346.28;;;21.16;34.89
78625;BME280;67944;0.000;0.000;2024-02-21T05:09:31;101342.97;;;21.22;34.78
78625;BME280;67944;0.000;0.000;2024-02-21T05:11:56;101344.31;;;21.26;34.75
78625;BME280;67944;0.000;0.000;2024-02-21T05:14:24;101348.16;;;21.32;34.91
78625;BME280;67944;0.000;0.000;2024-02-21T05:16:49;101345.84;;;21.37;34.99
78625;BME280;67944;0.000;0.000;2024-02-21T05:19:15;101344.38;;;21.42;34.86
78625;BME280;67944;0.000;0.000;2024-02-21T05:21:40;101341.03;;;21.48;34.89
78625;BME280;67944;0.000;0.000;2024-02-21T05:24:06;101331.94;;;21.51;34.99
78625;BME280;67944;0.000;0.000;2024-02-21T05:26:31;101338.41;;;21.57;34.85
78625;BME280;67944;0.000;0.000;2024-02-21T05:28:57;101337.91;;;21.61;35.27
78625;BME280;67944;0.000;0.000;2024-02-21T05:31:24;101342.69;;;21.66;34.81
78625;BME280;67944;0.000;0.000;2024-02-21T05:33:49;101336.06;;;21.70;34.56
78625;BME280;67944;0.000;0.000;2024-02-21T05:36:15;101335.56;;;21.74;34.91
78625;BME280;67944;0.000;0.000;2024-02-21T05:38:40;101344.88;;;21.78;34.74
78625;BME280;67944;0.000;0.000;2024-02-21T05:41:06;101349.84;;;21.81;34.59
78625;BME280;67944;0.000;0.000;2024-02-21T05:43:31;101348.50;;;21.85;34.64
78625;BME280;67944;0.000;0.000;2024-02-21T05:45:57;101341.03;;;21.89;34.64
78625;BME280;67944;0.000;0.000;2024-02-21T05:48:23;101340.69;;;21.92;34.90
78625;BME280;67944;0.000;0.000;2024-02-21T05:50:49;101328.09;;;21.94;34.60
78625;BME280;67944;0.000;0.000;2024-02-21T05:53:14;101325.28;;;21.96;34.57
78625;BME280;67944;0.000;0.000;2024-02-21T05:55:40;101327.78;;;21.97;34.67
78625;BME280;67944;0.000;0.000;2024-02-21T05:58:06;101323.13;;;21.99;34.23
78625;BME280;67944;0.000;0.000;2024-02-21T06:00:32;101312.22;;;22.02;34.49
78625;BME280;67944;0.000;0.000;2024-02-21T06:02:58;101312.06;;;22.04;34.45
78625;BME280;67944;0.000;0.000;2024-02-21T06:05:23;101311.38;;;22.02;34.25
78625;BME280;67944;0.000;0.000;2024-02-21T06:07:49;101315.00;;;21.93;34.43
78625;BME280;67944;0.000;0.000;2024-02-21T06:10:14;101308.75;;;21.85;34.55
78625;BME280;67944;0.000;0.000;2024-02-21T06:12:39;101316.84;;;21.84;34.56
78625;BME280;67944;0.000;0.000;2024-02-21T06:15:06;101323.66;;;21.86;34.68
78625;BME280;67944;0.000;0.000;2024-02-21T06:17:31;101317.81;;;21.91;34.77
78625;BME280;67944;0.000;0.000;2024-02-21T06:19:57;101318.47;;;21.93;34.69
78625;BME280;67944;0.000;0.000;2024-02-21T06:22:22;101313.69;;;21.97;34.84
78625;BME280;67944;0.000;0.000;2024-02-21T06:24:48;101315.03;;;22.01;34.69
78625;BME280;67944;0.000;0.000;2024-02-21T06:27:13;101312.06;;;22.04;34.69
78625;BME280;67944;0.000;0.000;2024-02-21T06:29:41;101316.19;;;22.06;34.77
78625;BME280;67944;0.000;0.000;2024-02-21T06:32:07;101310.53;;;22.09;34.69
78625;BME280;67944;0.000;0.000;2024-02-21T06:34:32;101302.41;;;22.11;34.85
78625;BME280;67944;0.000;0.000;2024-02-21T06:36:58;101303.88;;;22.13;34.64
78625;BME280;67944;0.000;0.000;2024-02-21T06:39:23;101301.91;;;22.15;34.58
78625;BME280;67944;0.000;0.000;2024-02-21T06:41:49;101301.56;;;22.18;34.63
78625;BME280;67944;0.000;0.000;2024-02-21T06:44:16;101307.53;;;22.20;34.56
78625;BME280;67944;0.000;0.000;2024-02-21T06:46:42;101280.66;;;22.23;34.50
78625;BME280;67944;0.000;0.000;2024-02-21T06:49:07;101283.13;;;22.25;34.55
78625;BME280;67944;0.000;0.000;2024-02-21T06:51:33;101288.28;;;22.27;34.70
78625;BME280;67944;0.000;0.000;2024-02-21T06:53:59;101288.94;;;22.29;34.44
78625;BME280;67944;0.000;0.000;2024-02-21T06:56:25;101282.63;;;22.30;34.46
78625;BME280;67944;0.000;0.000;2024-02-21T06:58:57;101286.91;;;22.31;34.22
78625;BME280;67944;0.000;0.000;2024-02-21T07:01:24;101296.69;;;22.30;34.56
78625;BME280;67944;0.000;0.000;2024-02-21T07:03:49;101305.31;;;22.32;34.36
78625;BME280;67944;0.000;0.000;2024-02-21T07:06:15;101302.50;;;22.34;34.25
78625;BME280;67944;0.000;0.000;2024-02-21T07:08:40;101304.16;;;22.35;34.47
78625;BME280;67944;0.000;0.000;2024-02-21T07:11:06;101301.50;;;22.35;34.56
78625;BME280;67944;0.000;0.000;2024-02-21T07:13:32;101292.72;;;22.34;34.36
78625;BME280;67944;0.000;0.000;2024-02-21T07:15:57;101289.06;;;22.35;34.25
78625;BME280;67944;0.000;0.000;2024-02-21T07:18:23;101282.59;;;22.38;34.46
78625;BME280;67944;0.000;0.000;2024-02-21T07:20:51;101290.38;;;22.39;34.51
78625;BME280;67944;0.000;0.000;2024-02-21T07:23:17;101285.06;;;22.39;34.28
78625;BME280;67944;0.000;0.000;2024-02-21T07:25:42;101284.91;;;22.41;34.59
78625;BME280;67944;0.000;0.000;2024-02-21T07:28:08;101282.06;;;22.42;34.61
78625;BME280;67944;0.000;0.000;2024-02-21T07:30:34;101281.06;;;22.43;34.27
78625;BME280;67944;0.000;0.000;2024-02-21T07:32:59;101276.59;;;22.44;34.40
78625;BME280;67944;0.000;0.000;2024-02-21T07:35:24;101280.06;;;22.44;34.29
78625;BME280;67944;0.000;0.000;2024-02-21T07:37:50;101283.56;;;22.45;34.22
78625;BME280;67944;0.000;0.000;2024-02-21T07:40:16;101298.50;;;22.46;34.34
78625;BME280;67944;0.000;0.000;2024-02-21T07:42:43;101296.50;;;22.48;34.61
78625;BME280;67944;0.000;0.000;2024-02-21T07:45:09;101292.00;;;22.48;34.14
78625;BME280;67944;0.000;0.000;2024-02-21T07:47:36;101286.69;;;22.48;34.22
78625;BME280;67944;0.000;0.000;2024-02-21T07:50:02;101289.34;;;22.48;34.37
78625;BME280;67944;0.000;0.000;2024-02-21T07:52:28;101282.22;;;22.49;34.46
78625;BME280;67944;0.000;0.000;2024-02-21T07:54:54;101283.22;;;22.48;34.65
78625;BME280;67944;0.000;0.000;2024-02-21T07:57:19;101279.56;;;22.49;34.75
78625;BME280;67944;0.000;0.000;2024-02-21T07:59:45;101275.91;;;22.50;34.36
78625;BME280;67944;0.000;0.000;2024-02-21T08:02:14;101272.59;;;22.48;34.24
78625;BME280;67944;0.000;0.000;2024-02-21T08:04:39;101267.28;;;22.48;34.66
78625;BME280;67944;0.000;0.000;2024-02-21T08:07:04;101263.63;;;22.49;34.69
78625;BME280;67944;0.000;0.000;2024-02-21T08:09:30;101259.16;;;22.49;34.53
78625;BME280;67944;0.000;0.000;2024-02-21T08:11:55;101249.38;;;22.50;34.42
78625;BME280;67944;0.000;0.000;2024-02-21T08:14:21;101252.03;;;22.50;34.51
78625;BME280;67944;0.000;0.000;2024-02-21T08:16:47;101254.69;;;22.50;34.82
78625;BME280;67944;0.000;0.000;2024-02-21T08:19:13;101246.72;;;22.50;34.80
78625;BME280;67944;0.000;0.000;2024-02-21T08:21:38;101256.31;;;22.51;34.73
78625;BME280;67944;0.000;0.000;2024-02-21T08:24:05;101252.66;;;22.52;34.54
78625;BME280;67944;0.000;0.000;2024-02-21T08:26:31;101243.06;;;22.51;34.62
78625;BME280;67944;0.000;0.000;2024-02-21T08:28:57;101235.09;;;22.51;34.64
78625;BME280;67944;0.000;0.000;2024-02-21T08:31:28;101234.06;;;22.52;34.71
78625;BME280;67944;0.000;0.000;2024-02-21T08:34:03;101227.13;;;22.51;34.86
78625;BME280;67944;0.000;0.000;2024-02-21T08:36:36;101230.63;;;22.51;34.55
78625;BME280;67944;0.000;0.000;2024-02-21T08:39:03;101220.78;;;22.52;34.81
78625;BME280;67944;0.000;0.000;2024-02-21T08:41:32;101213.03;;;22.50;34.78
78625;BME280;67944;0.000;0.000;2024-02-21T08:43:58;101214.84;;;22.50;34.95
78625;BME280;67944;0.000;0.000;2024-02-21T08:46:24;101220.00;;;22.51;34.61
78625;BME280;67944;0.000;0.000;2024-02-21T08:48:50;101220.00;;;22.51;34.75
78625;BME280;67944;0.000;0.000;2024-02-21T08:51:17;101220.00;;;22.51;35.01
78625;BME280;67944;0.000;0.000;2024-02-21T08:53:43;101214.69;;;22.51;34.98
78625;BME280;67944;0.000;0.000;2024-02-21T08:56:09;101219.16;;;22.51;34.81
78625;BME280;67944;0.000;0.000;2024-02-21T08:58:36;101213.03;;;22.50;34.96
78625;BME280;67944;0.000;0.000;2024-02-21T09:01:05;101216.50;;;22.51;34.89
78625;BME280;67944;0.000;0.000;2024-02-21T09:03:33;101215.47;;;22.52;34.71
78625;BME280;67944;0.000;0.000;2024-02-21T09:05:59;101213.84;;;22.51;34.96
78625;BME280;67944;0.000;0.000;2024-02-21T09:08:26;101193.44;;;22.51;34.66
78625;BME280;67944;0.000;0.000;2024-02-21T09:10:52;101197.72;;;22.52;34.95
78625;BME280;67944;0.000;0.000;2024-02-21T09:13:17;101191.59;;;22.52;35.12
78625;BME280;67944;0.000;0.000;2024-02-21T09:15:43;101189.75;;;22.52;35.04
78625;BME280;67944;0.000;0.000;2024-02-21T09:18:09;101187.94;;;22.53;35.11
78625;BME280;67944;0.000;0.000;2024-02-21T09:20:34;101174.66;;;22.53;34.94
78625;BME280;67944;0.000;0.000;2024-02-21T09:23:00;101172.00;;;22.53;35.17
78625;BME280;67944;0.000;0.000;2024-02-21T09:25:25;101178.97;;;22.54;35.02
78625;BME280;67944;0.000;0.000;2024-02-21T09:27:51;101177.97;;;22.55;35.19
78625;BME280;67944;0.000;0.000;2024-02-21T09:30:17;101180.63;;;22.55;35.23
78625;BME280;67944;0.000;0.000;2024-02-21T09:32:44;101180.63;;;22.55;35.05
78625;BME280;67944;0.000;0.000;2024-02-21T09:35:09;101170.66;;;22.57;35.19
78625;BME280;67944;0.000;0.000;2024-02-21T09:37:35;101164.34;;;22.58;35.10
78625;BME280;67944;0.000;0.000;2024-02-21T09:40:01;101160.88;;;22.57;35.30
78625;BME280;67944;0.000;0.000;2024-02-21T09:42:40;101163.34;;;22.59;35.13
78625;BME280;67944;0.000;0.000;2024-02-21T09:45:19;101158.88;;;22.60;35.14
78625;BME280;67944;0.000;0.000;2024-02-21T09:50:43;101151.56;;;22.62;34.97
78625;BME280;67944;0.000;0.000;2024-02-21T09:53:12;101152.38;;;22.62;34.90
78625;BME280;67944;0.000;0.000;2024-02-21T09:55:39;101152.38;;;22.62;35.14
78625;BME280;67944;0.000;0.000;2024-02-21T09:58:07;101150.38;;;22.64;34.92
78625;BME280;67944;0.000;0.000;2024-02-21T10:00:35;101143.59;;;22.62;34.72
78625;BME280;67944;0.000;0.000;2024-02-21T10:03:01;101137.44;;;22.61;34.99
78625;BME280;67944;0.000;0.000;2024-02-21T10:05:26;101150.72;;;22.61;35.00
78625;BME280;67944;0.000;0.000;2024-02-21T10:07:52;101140.94;;;22.62;34.97
78625;BME280;67944;0.000;0.000;2024-02-21T10:10:18;101143.41;;;22.63;34.98
78625;BME280;67944;0.000;0.000;2024-02-21T10:12:50;101133.63;;;22.64;34.92
78625;BME280;67944;0.000;0.000;2024-02-21T10:15:20;101135.28;;;22.65;34.98
78625;BME280;67944;0.000;0.000;2024-02-21T10:17:57;101126.47;;;22.64;34.99
78625;BME280;67944;0.000;0.000;2024-02-21T10:20:23;101125.47;;;22.65;34.71
78625;BME280;67944;0.000;0.000;2024-02-21T10:22:48;101121.81;;;22.66;34.70
78625;BME280;67944;0.000;0.000;2024-02-21T10:25:14;101118.34;;;22.66;35.07
78625;BME280;67944;0.000;0.000;2024-02-21T10:27:39;101105.91;;;22.66;35.08
78625;BME280;67944;0.000;0.000;2024-02-21T10:30:13;101107.53;;;22.67;34.87
78625;BME280;67944;0.000;0.000;2024-02-21T10:32:49;101109.19;;;22.68;35.13
78625;BME280;67944;0.000;0.000;2024-02-21T10:35:34;101102.88;;;22.69;35.00
78625;BME280;67944;0.000;0.000;2024-02-21T10:38:00;101096.56;;;22.70;35.17
78625;BME280;67944;0.000;0.000;2024-02-21T10:43:12;101086.59;;;22.72;35.30
78625;BME280;67944;0.000;0.000;2024-02-21T10:45:41;101083.94;;;22.72;34.94
78625;BME280;67944;0.000;0.000;2024-02-21T10:48:12;101081.09;;;22.74;35.20
78625;BME280;67944;0.000;0.000;2024-02-21T10:50:57;101077.63;;;22.73;35.10
78625;BME280;67944;0.000;0.000;2024-02-21T10:53:36;101066.81;;;22.75;34.94
78625;BME280;67944;0.000;0.000;2024-02-21T10:56:14;101072.94;;;22.75;35.18
78625;BME280;67944;0.000;0.000;2024-02-21T10:58:43;101065.78;;;22.76;35.10
78625;BME280;67944;0.000;0.000;2024-02-21T11:01:09;101067.63;;;22.75;34.75
78625;BME280;67944;0.000;0.000;2024-02-21T11:03:36;101059.66;;;22.75;34.59
78625;BME280;67944;0.000;0.000;2024-02-21T11:06:02;101055.19;;;22.76;34.98
78625;BME280;67944;0.000;0.000;2024-02-21T11:08:30;101059.47;;;22.77;35.14
78625;BME280;67944;0.000;0.000;2024-02-21T11:10:59;101056.81;;;22.77;34.67
78625;BME280;67944;0.000;0.000;2024-02-21T11:13:35;101040.25;;;22.75;34.59
78625;BME280;67944;0.000;0.000;2024-02-21T11:16:11;101032.28;;;22.75;34.80
78625;BME280;67944;0.000;0.000;2024-02-21T11:18:37;101031.28;;;22.76;34.71
78625;BME280;67944;0.000;0.000;2024-02-21T11:21:04;101026.97;;;22.75;35.00
78625;BME280;67944;0.000;0.000;2024-02-21T11:23:32;101032.28;;;22.75;35.04
78625;BME280;67944;0.000;0.000;2024-02-21T11:26:24;101024.31;;;22.75;34.61
78625;BME280;67944;0.000;0.000;2024-02-21T11:29:00;101014.69;;;22.74;34.99
78625;BME280;67944;0.000;0.000;2024-02-21T11:31:26;101003.91;;;22.75;34.75
78625;BME280;67944;0.000;0.000;2024-02-21T11:33:53;101004.56;;;22.77;34.25
78625;BME280;67944;0.000;0.000;2024-02-21T11:36:24;101001.91;;;22.77;34.42
78625;BME280;67944;0.000;0.000;2024-02-21T11:38:51;100991.28;;;22.77;34.26
78625;BME280;67944;0.000;0.000;2024-02-21T11:41:16;100989.28;;;22.79;34.36
78625;BME280;67944;0.000;0.000;2024-02-21T11:43:41;100974.00;;;22.81;34.16
78625;BME280;67944;0.000;0.000;2024-02-21T11:46:07;100980.13;;;22.82;34.57
78625;BME280;67944;0.000;0.000;2024-02-21T11:48:32;100969.34;;;22.83;34.22
78625;BME280;67944;0.000;0.000;2024-02-21T11:50:58;100965.66;;;22.84;34.04
78625;BME280;67944;0.000;0.000;2024-02-21T11:53:26;100962.84;;;22.86;34.31
78625;BME280;67944;0.000;0.000;2024-02-21T11:55:56;100953.03;;;22.86;34.62
78625;BME280;67944;0.000;0.000;2024-02-21T11:58:22;100960.00;;;22.87;34.31
78625;BME280;67944;0.000;0.000;2024-02-21T12:00:48;100944.72;;;22.89;34.39
78625;BME280;67944;0.000;0.000;2024-02-21T12:03:14;100938.38;;;22.90;34.16
78625;BME280;67944;0.000;0.000;2024-02-21T12:05:41;100940.88;;;22.92;34.33
78625;BME280;67944;0.000;0.000;2024-02-21T12:08:06;100936.38;;;22.93;34.35
78625;BME280;67944;0.000;0.000;2024-02-21T12:10:34;100930.88;;;22.94;34.33
78625;BME280;67944;0.000;0.000;2024-02-21T12:13:10;100923.75;;;22.95;34.82
78625;BME280;67944;0.000;0.000;2024-02-21T12:15:35;100914.72;;;22.96;34.31
78625;BME280;67944;0.000;0.000;2024-02-21T12:18:01;100910.25;;;22.96;34.53
78625;BME280;67944;0.000;0.000;2024-02-21T12:20:26;100902.28;;;22.96;33.88
78625;BME280;67944;0.000;0.000;2024-02-21T12:22:52;100904.09;;;22.96;33.95
78625;BME280;67944;0.000;0.000;2024-02-21T12:25:22;100887.16;;;22.97;34.25
78625;BME280;67944;0.000;0.000;2024-02-21T12:27:49;100879.84;;;22.99;34.05
78625;BME280;67944;0.000;0.000;2024-02-21T12:30:17;100883.13;;;23.01;33.95
78625;BME280;67944;0.000;0.000;2024-02-21T12:32:43;100875.97;;;23.01;34.38
78625;BME280;67944;0.000;0.000;2024-02-21T12:35:09;100875.81;;;23.03;34.29
78625;BME280;67944;0.000;0.000;2024-02-21T12:37:34;100867.84;;;23.03;33.95
78625;BME280;67944;0.000;0.000;2024-02-21T12:40:00;100851.88;;;23.03;34.19
78625;BME280;67944;0.000;0.000;2024-02-21T12:42:26;100850.06;;;23.03;34.07
78625;BME280;67944;0.000;0.000;2024-02-21T12:44:52;100839.44;;;23.03;34.50
78625;BME280;67944;0.000;0.000;2024-02-21T12:47:18;100839.88;;;23.07;34.04
78625;BME280;67944;0.000;0.000;2024-02-21T12:49:45;100842.53;;;23.07;34.41
78625;BME280;67944;0.000;0.000;2024-02-21T12:52:11;100833.56;;;23.08;34.06
78625;BME280;67944;0.000;0.000;2024-02-21T12:54:36;100826.22;;;23.10;33.85
78625;BME280;67944;0.000;0.000;2024-02-21T12:57:02;100823.56;;;23.10;34.41
78625;BME280;67944;0.000;0.000;2024-02-21T12:59:29;100819.91;;;23.11;34.37
78625;BME280;67944;0.000;0.000;2024-02-21T13:01:54;100810.94;;;23.12;34.22